Airfield :
LOGIN :

Register | Disclaimer

   EN    FR    IT 

 










Legend :    VFR   Marginal VFR   IFR   Intensive IFR   Very Intensive IFR
Visi :
Ceiling :
>= 8 km
>= 3000ft
5 to 8 km
1000 to 3000 ft
1500m to 5 km
500 to 1000 ft
800 to 1500m
200 to 500 ft
< 800m
< 200 ft
Symbols :   Thunderstorms  Fog  Heavy snow  Heavy precipitations  Wind > 20 kt
SIGMETs :     Misc.  Thunderstorms  Icing  Turbulence  Mountain Waves  Volcanic Ashes







- Airport Elevation : 489 ft
- IATA code : GDN


EPGD - Gdansk

CURRENT METAR :
  • 251200Z 29009KT 8000 -RA FEW003 BKN005 03/02 Q1001

EXPIRED METARs :
  • 251130Z 32008KT 300V360 9999 -DZ SCT004 OVC006 03/03 Q1000
  • 251100Z 34006KT 310V010 9999 -RA SCT003 OVC006 04/03 Q1000
  • 251030Z 34006KT 310V010 9999 BKN003 OVC005 04/03 Q1000
  • 251000Z 35007KT 8000 -RA SCT002 OVC003 04/03 Q1000
  • 250930Z 35005KT 9999 4000E -RA BKN002 OVC005 05/04 Q1000

TAF TAF EPGD
Valid from the 25 at 12:00 until the 26 at 12:00 UTC


251130Z 2512/2612 VRB04KT 9999 BKN005
TEMPO 2512/2516 3000 -RA BR BKN002
BECMG 2520/2522 27014KT BKN016
TEMPO 2521/2524 BKN014CB
BECMG 2600/2602 23004KT
PROB30 2603/2607 BKN002
No reported NOTAMs for that airfield.



MET'MAP, your aeronautical weather chart ! - Copyright ORBIFLY December 2007 - Disclaimer

ORBIFLY MET'MAP TEAM :

Programming & Development : Alexandra Zaïnal
Concept & Development : Baudouin d'Aumeries
Co-Development & Prog : Marc-Olivier Méhu
Technical & hardware support : Manuel Goepfert

Contact : metmap@orbifly.com




SOURCES & CREDITS :

   NOAA